Aeroporto :







RITROVATECI SU...

 
LOGIN :

Iscrizione | Disclaimer

   EN    FR    IT 

 









Sommario :    VFR   VFR Marginale   IFR   IFR Intensivo   IFR Molto Intensivo
Visibilità : 
Base nubi : 
>= 8 km
>= 3000ft
5 / 8 km
1000 / 3000 ft
1500m / 5 km
500 / 1000 ft
800 / 1500m
200 / 500 ft
< 800m
< 200 ft
Simboli :   Temporali  Nebbia  Neve Forte  Precipitazioni Forti  Vento > 20 kt






- Altitudine del aeroporto : 72 ft
- Codice IATA : YDF


CYDF - Deer Lake

ULTIMO METAR :
  • 151700Z 19011G19KT 15SM SCT030 OVC090 04/M02 A3017 RMK SC3AS5 SLP221

METARs OBSOLETI :
  • 151600Z 22009G15KT 15SM FEW025 BKN090 BKN120 03/M02 A3021 RMK SC2AC3AS2 PRESFR SLP233
  • 151500Z VRB02KT 15SM SCT025 BKN100 M01/M04 A3027 RMK SC4AS3 SLP254

TAF TAF CYDF
Valido dal 15 a 14 ore il 16 a 02 ore UTC


151338Z 1514/1602 VRB03KT P6SM SCT030 BKN120
BECMG 1514/1516 18010G20KT
FM151800 19015G25KT P6SM -SN OVC030
TEMPO 1518/1522 5SM -SNRA OVC020
FM152200 18015G30KT 6SM -RASN BR OVC020
TEMPO 1522/1524 2SM -RASN
FM160000 21015G25KT 6SM -RA BR OVC015
TEMPO 1600/1602 21/2SM -RASN BR BKN008 OVC015 RMK NXT FCST BY 152000Z



MetMap, La meteo Aeronautica in un colpo d'occhio ! - Copyright ORBIFLY Dicembre 2007 - Disclaimer

ORBIFLY MET'MAP TEAM :

Programmazione e sviluppo : Alexandra Zaïnal
Concezione e sviluppo : Baudouin d'Aumeries
Co-Programmazione e sviluppo : Marc-Olivier Méhu
Supporto tecnico e logistico : Manuel Goepfert
Aiuto per la traduzione : Arnaldo La Scala

Contatto : metmap@orbifly.com




FONTI E CREDITI :

   NOAA